createdAt,value
2024-01-19T00:00:09.293Z,-3.80
2024-01-19T00:02:37.077Z,-3.85
2024-01-19T00:05:07.091Z,-3.88
2024-01-19T00:07:34.728Z,-3.96
2024-01-19T00:10:02.558Z,-3.97
2024-01-19T00:12:36.598Z,-3.98
2024-01-19T00:15:07.128Z,-4.06
2024-01-19T00:17:35.331Z,-4.10
2024-01-19T00:20:03.738Z,-4.11
2024-01-19T00:22:33.455Z,-4.11
2024-01-19T00:25:01.388Z,-4.21
2024-01-19T00:27:30.817Z,-4.20
2024-01-19T00:29:59.167Z,-4.18
2024-01-19T00:32:26.879Z,-4.18
2024-01-19T00:34:54.805Z,-4.11
2024-01-19T00:37:22.577Z,-4.04
2024-01-19T00:39:51.650Z,-3.98
2024-01-19T00:42:19.897Z,-4.08
2024-01-19T00:44:47.614Z,-4.08
2024-01-19T00:47:15.320Z,-4.16
2024-01-19T00:49:43.130Z,-4.16
2024-01-19T00:52:11.265Z,-4.19
2024-01-19T00:54:39.352Z,-4.29
2024-01-19T00:57:08.447Z,-4.29
2024-01-19T00:59:36.076Z,-4.34
2024-01-19T01:02:03.706Z,-4.34
2024-01-19T01:04:32.025Z,-4.39
2024-01-19T01:06:59.625Z,-4.42
2024-01-19T01:09:27.456Z,-4.43
2024-01-19T01:11:55.122Z,-4.42
2024-01-19T01:14:24.601Z,-4.34
2024-01-19T01:16:52.255Z,-4.34
2024-01-19T01:19:20.057Z,-4.36
2024-01-19T01:21:47.811Z,-4.27
2024-01-19T01:24:15.843Z,-4.32
2024-01-19T01:26:43.847Z,-4.32
2024-01-19T01:29:13.180Z,-4.39
2024-01-19T01:31:42.114Z,-4.34
2024-01-19T01:34:12.306Z,-4.47
2024-01-19T01:36:40.557Z,-4.54
2024-01-19T01:39:08.391Z,-4.54
2024-01-19T01:41:37.312Z,-4.60
2024-01-19T01:44:06.037Z,-4.64
2024-01-19T01:46:34.835Z,-4.54
2024-01-19T01:49:04.047Z,-4.46
2024-01-19T01:51:32.935Z,-4.41
2024-01-19T01:54:00.596Z,-4.37
2024-01-19T01:56:29.572Z,-4.36
2024-01-19T01:58:57.561Z,-4.42
2024-01-19T02:01:25.158Z,-4.40
2024-01-19T02:03:56.138Z,-4.38
2024-01-19T02:06:25.445Z,-4.45
2024-01-19T02:08:53.359Z,-4.39
2024-01-19T02:11:21.477Z,-4.35
2024-01-19T02:13:49.207Z,-4.32
2024-01-19T02:16:16.952Z,-4.27
2024-01-19T02:18:44.655Z,-4.21
2024-01-19T02:21:12.323Z,-4.21
2024-01-19T02:23:50.385Z,-4.15
2024-01-19T02:26:19.612Z,-4.13
2024-01-19T02:28:47.144Z,-4.19
2024-01-19T02:31:14.946Z,-4.17
2024-01-19T02:33:42.605Z,-4.22
2024-01-19T02:36:10.799Z,-4.21
2024-01-19T02:38:38.309Z,-4.21
2024-01-19T02:41:06.196Z,-4.21
2024-01-19T02:43:35.137Z,-4.14
2024-01-19T02:46:02.932Z,-4.19
2024-01-19T02:48:30.653Z,-4.18
2024-01-19T02:50:58.391Z,-4.18
2024-01-19T02:53:26.056Z,-4.18
2024-01-19T02:55:53.629Z,-4.18
2024-01-19T02:58:21.164Z,-4.23
2024-01-19T03:00:50.046Z,-4.25
2024-01-19T03:03:17.745Z,-4.29
2024-01-19T03:05:45.374Z,-4.29
2024-01-19T03:08:13.015Z,-4.35
2024-01-19T03:10:40.558Z,-4.43
2024-01-19T03:13:08.215Z,-4.46
2024-01-19T03:15:36.151Z,-4.47
2024-01-19T03:18:06.083Z,-4.48
2024-01-19T03:20:34.014Z,-4.52
2024-01-19T03:23:01.907Z,-4.58
2024-01-19T03:25:29.518Z,-4.54
2024-01-19T03:27:57.096Z,-4.44
2024-01-19T03:30:25.664Z,-4.40
2024-01-19T03:32:53.518Z,-4.40
2024-01-19T03:35:22.554Z,-4.29
2024-01-19T03:37:50.617Z,-4.27
2024-01-19T03:40:18.214Z,-4.28
2024-01-19T03:42:45.968Z,-4.18
2024-01-19T03:45:13.577Z,-4.20
2024-01-19T03:47:41.243Z,-4.19
2024-01-19T03:50:10.038Z,-4.15
2024-01-19T03:52:48.458Z,-4.15
2024-01-19T03:55:18.904Z,-4.15
2024-01-19T03:57:46.755Z,-4.15
2024-01-19T04:00:14.581Z,-4.15
2024-01-19T04:02:42.260Z,-4.20
2024-01-19T04:05:10.308Z,-4.20
2024-01-19T04:07:39.181Z,-4.15
2024-01-19T04:10:07.867Z,-4.04
2024-01-19T04:12:37.172Z,-4.04
2024-01-19T04:15:06.319Z,-4.09
2024-01-19T04:17:34.127Z,-4.04
2024-01-19T04:20:01.786Z,-3.98
2024-01-19T04:22:29.870Z,-3.95
2024-01-19T04:24:58.799Z,-3.90
2024-01-19T04:27:26.265Z,-3.94
2024-01-19T04:29:53.834Z,-3.99
2024-01-19T04:32:22.713Z,-4.01
2024-01-19T04:34:50.342Z,-4.04
2024-01-19T04:37:17.892Z,-4.02
2024-01-19T04:39:45.571Z,-4.04
2024-01-19T04:42:14.636Z,-4.02
2024-01-19T04:44:42.644Z,-4.06
2024-01-19T04:47:11.070Z,-4.09
2024-01-19T04:49:38.675Z,-4.16
2024-01-19T04:52:06.451Z,-4.22
2024-01-19T04:54:33.956Z,-4.32
2024-01-19T04:57:01.601Z,-4.34
2024-01-19T04:59:30.473Z,-4.40
2024-01-19T05:01:58.263Z,-4.42
2024-01-19T05:04:25.772Z,-4.48
2024-01-19T05:06:53.392Z,-4.53
2024-01-19T05:09:20.993Z,-4.49
2024-01-19T05:11:48.572Z,-4.48
2024-01-19T05:14:16.058Z,-4.50
2024-01-19T05:16:45.028Z,-4.38
2024-01-19T05:19:12.590Z,-4.38
2024-01-19T05:21:40.145Z,-4.45
2024-01-19T05:24:08.037Z,-4.45
2024-01-19T05:26:35.607Z,-4.49
2024-01-19T05:29:03.242Z,-4.52
2024-01-19T05:31:30.933Z,-4.49
2024-01-19T05:34:00.041Z,-4.46
2024-01-19T05:36:27.833Z,-4.64
2024-01-19T05:38:55.834Z,-4.63
2024-01-19T05:41:23.701Z,-4.68
2024-01-19T05:43:51.665Z,-4.67
2024-01-19T05:46:19.218Z,-4.70
2024-01-19T05:48:46.845Z,-4.57
2024-01-19T05:51:17.708Z,-4.53
2024-01-19T05:53:45.758Z,-4.68
2024-01-19T05:56:13.315Z,-4.70
2024-01-19T05:58:41.048Z,-4.73
2024-01-19T06:01:08.804Z,-4.77
2024-01-19T06:03:36.820Z,-4.72
2024-01-19T06:06:05.153Z,-4.77
2024-01-19T06:08:34.543Z,-4.72
2024-01-19T06:11:02.173Z,-4.65
2024-01-19T06:13:29.890Z,-4.63
2024-01-19T06:15:57.500Z,-4.55
2024-01-19T06:18:25.361Z,-4.53
2024-01-19T06:20:53.406Z,-4.43
2024-01-19T06:23:21.446Z,-4.42
2024-01-19T06:25:50.487Z,-4.42
2024-01-19T06:28:18.340Z,-4.41
2024-01-19T06:30:46.364Z,-4.35
2024-01-19T06:33:14.020Z,-4.34
2024-01-19T06:35:41.801Z,-4.40
2024-01-19T06:38:09.372Z,-4.42
2024-01-19T06:40:36.926Z,-4.45
2024-01-19T06:43:05.870Z,-4.46
2024-01-19T06:45:33.451Z,-4.49
2024-01-19T06:48:01.040Z,-4.49
2024-01-19T06:50:28.662Z,-4.41
2024-01-19T06:52:58.323Z,-4.39
2024-01-19T06:55:27.562Z,-4.41
2024-01-19T06:57:55.123Z,-4.47
2024-01-19T07:00:24.176Z,-4.42
2024-01-19T07:02:51.829Z,-4.40
2024-01-19T07:05:20.799Z,-4.38
2024-01-19T07:07:48.680Z,-4.38
2024-01-19T07:10:16.518Z,-4.38
2024-01-19T07:12:44.125Z,-4.41
2024-01-19T07:15:11.828Z,-4.36
2024-01-19T07:17:40.846Z,-4.30
2024-01-19T07:20:10.050Z,-4.22
2024-01-19T07:22:38.019Z,-4.16
2024-01-19T07:25:06.674Z,-4.14
2024-01-19T07:27:37.089Z,-4.09
2024-01-19T07:30:04.413Z,-4.01
2024-01-19T07:32:39.432Z,-4.04
2024-01-19T07:35:16.045Z,-3.96
2024-01-19T07:37:43.858Z,-3.97
2024-01-19T07:40:12.188Z,-3.91
2024-01-19T07:42:40.100Z,-3.84
2024-01-19T07:45:08.614Z,-3.80
2024-01-19T07:47:36.817Z,-3.84
2024-01-19T07:50:06.088Z,-3.85
2024-01-19T07:52:48.555Z,-3.78
2024-01-19T07:55:18.939Z,-3.86
2024-01-19T07:57:46.613Z,-3.84
2024-01-19T08:00:15.038Z,-3.72
2024-01-19T08:02:44.957Z,-3.68
2024-01-19T08:05:12.583Z,-3.71
2024-01-19T08:07:41.895Z,-3.73
2024-01-19T08:10:10.420Z,-3.61
2024-01-19T08:12:38.216Z,-3.54
2024-01-19T08:15:08.725Z,-3.41
2024-01-19T08:17:36.598Z,-3.49
2024-01-19T08:20:10.539Z,-3.44
2024-01-19T08:22:38.335Z,-3.46
2024-01-19T08:25:08.141Z,-3.39
2024-01-19T08:27:35.767Z,-3.40
2024-01-19T08:30:04.009Z,-3.37
2024-01-19T08:32:32.698Z,-3.36
2024-01-19T08:35:00.387Z,-3.27
2024-01-19T08:37:29.867Z,-3.25
2024-01-19T08:39:59.977Z,-3.19
2024-01-19T08:42:30.132Z,-3.20
2024-01-19T08:44:57.970Z,-3.18
2024-01-19T08:47:25.722Z,-3.08
2024-01-19T08:49:53.845Z,-2.95
2024-01-19T08:52:21.583Z,-2.94
2024-01-19T08:54:49.270Z,-2.88
2024-01-19T08:57:17.764Z,-2.83
2024-01-19T08:59:46.747Z,-2.72
2024-01-19T09:02:14.377Z,-2.65
2024-01-19T09:04:44.407Z,-2.59
2024-01-19T09:07:12.403Z,-2.50
2024-01-19T09:09:41.740Z,-2.42
2024-01-19T09:12:09.678Z,-2.35
2024-01-19T09:14:37.934Z,-2.26
2024-01-19T09:17:07.090Z,-2.14
2024-01-19T09:19:36.925Z,-2.09
2024-01-19T09:22:06.918Z,-2.01
2024-01-19T09:24:34.623Z,-1.96
2024-01-19T09:27:02.376Z,-1.91
2024-01-19T09:29:53.131Z,-1.79
2024-01-19T09:32:34.051Z,-1.73
2024-01-19T09:35:01.709Z,-1.70
2024-01-19T09:37:29.261Z,-1.60
2024-01-19T09:39:56.895Z,-1.52
2024-01-19T09:42:29.225Z,-1.41
2024-01-19T09:45:05.078Z,-1.26
2024-01-19T09:47:44.017Z,-1.12
2024-01-19T09:50:18.764Z,-1.04
2024-01-19T09:52:53.356Z,-0.91
2024-01-19T09:55:22.687Z,-0.91
2024-01-19T09:57:51.969Z,-0.89
2024-01-19T10:00:21.052Z,-0.89
2024-01-19T10:02:53.912Z,-0.76
2024-01-19T10:05:23.473Z,-0.67
2024-01-19T10:07:54.624Z,-0.57
2024-01-19T10:10:22.421Z,-0.44
2024-01-19T10:12:50.069Z,-0.34
2024-01-19T10:15:18.422Z,-0.20
2024-01-19T10:17:47.269Z,-0.15
2024-01-19T10:20:17.808Z,-0.00
2024-01-19T10:22:45.586Z,0.03
2024-01-19T10:25:14.718Z,0.16
2024-01-19T10:27:45.628Z,0.52
2024-01-19T10:30:16.161Z,1.00
2024-01-19T10:32:46.433Z,1.51
2024-01-19T10:35:16.974Z,1.96
2024-01-19T10:37:45.364Z,2.44
2024-01-19T10:40:21.594Z,2.95
2024-01-19T10:42:52.021Z,3.37
2024-01-19T10:45:22.161Z,3.89
2024-01-19T10:47:51.744Z,4.37
2024-01-19T10:50:22.078Z,4.81
2024-01-19T10:52:52.715Z,5.21
2024-01-19T10:55:21.845Z,5.62
2024-01-19T10:57:51.399Z,6.05
2024-01-19T11:00:23.854Z,6.37
2024-01-19T11:02:53.495Z,6.66
2024-01-19T11:05:22.606Z,6.99
2024-01-19T11:07:53.531Z,7.21
2024-01-19T11:10:22.081Z,7.42
2024-01-19T11:12:56.229Z,7.61
2024-01-19T11:15:36.659Z,7.69
2024-01-19T11:18:07.119Z,7.77
2024-01-19T11:20:37.200Z,8.02
2024-01-19T11:23:06.471Z,8.30
2024-01-19T11:26:00.760Z,8.59
2024-01-19T11:28:42.169Z,8.78
2024-01-19T11:31:15.935Z,9.03
2024-01-19T11:33:44.133Z,8.86
2024-01-19T11:36:13.511Z,8.70
2024-01-19T11:38:49.854Z,9.07
2024-01-19T11:41:49.964Z,9.30
2024-01-19T11:44:44.195Z,9.53
2024-01-19T11:47:45.517Z,9.69
2024-01-19T11:50:15.280Z,9.99
2024-01-19T11:52:49.897Z,10.12
2024-01-19T11:55:42.873Z,10.21
2024-01-19T11:58:39.682Z,10.39
2024-01-19T12:01:11.283Z,10.61
2024-01-19T12:03:41.856Z,10.69
2024-01-19T12:06:10.645Z,10.88
2024-01-19T12:09:21.177Z,11.07
2024-01-19T12:11:57.758Z,11.07
2024-01-19T12:14:25.699Z,11.04
2024-01-19T12:16:53.536Z,10.70
2024-01-19T12:19:24.183Z,10.37
2024-01-19T12:21:52.496Z,10.43
2024-01-19T12:24:24.624Z,10.53
2024-01-19T12:26:52.566Z,10.64
2024-01-19T12:29:31.786Z,10.39
2024-01-19T12:32:12.199Z,10.37
2024-01-19T12:34:52.139Z,10.07
2024-01-19T12:37:22.268Z,9.98
2024-01-19T12:39:53.819Z,9.68
2024-01-19T12:42:23.125Z,9.15
2024-01-19T12:44:55.774Z,8.54
2024-01-19T12:47:23.407Z,7.97
2024-01-19T12:49:57.292Z,7.82
2024-01-19T12:52:34.534Z,7.36
2024-01-19T12:55:04.469Z,7.16
2024-01-19T12:57:32.316Z,6.91
2024-01-19T13:00:08.890Z,6.72
2024-01-19T13:02:37.637Z,6.29
2024-01-19T13:05:05.967Z,6.02
2024-01-19T13:07:34.042Z,5.81
2024-01-19T13:10:04.403Z,5.54
2024-01-19T13:12:32.128Z,5.27
2024-01-19T13:15:05.645Z,5.17
2024-01-19T13:17:33.409Z,5.13
2024-01-19T13:20:00.995Z,5.31
2024-01-19T13:22:28.871Z,5.65
2024-01-19T13:24:56.561Z,5.95
2024-01-19T13:27:25.454Z,6.20
2024-01-19T13:29:53.216Z,6.36
2024-01-19T13:32:20.942Z,6.53
2024-01-19T13:34:48.770Z,6.59
2024-01-19T13:37:16.368Z,6.87
2024-01-19T13:39:43.917Z,7.11
2024-01-19T13:42:11.544Z,7.47
2024-01-19T13:44:40.514Z,7.34
2024-01-19T13:47:08.437Z,7.19
2024-01-19T13:49:39.287Z,7.26
2024-01-19T13:52:09.523Z,7.25
2024-01-19T13:54:44.896Z,7.19
2024-01-19T13:57:13.209Z,6.95
2024-01-19T13:59:46.996Z,6.47
2024-01-19T14:02:16.478Z,6.06
2024-01-19T14:04:45.233Z,5.75
2024-01-19T14:07:18.232Z,5.59
2024-01-19T14:09:48.367Z,5.58
2024-01-19T14:12:17.712Z,5.26
2024-01-19T14:14:47.049Z,5.13
2024-01-19T14:17:19.379Z,4.92
2024-01-19T14:19:51.155Z,4.58
2024-01-19T14:22:22.100Z,4.25
2024-01-19T14:24:51.417Z,4.07
2024-01-19T14:27:22.425Z,3.94
2024-01-19T14:29:54.797Z,3.82
2024-01-19T14:32:23.381Z,3.68
2024-01-19T14:34:56.394Z,3.68
2024-01-19T14:37:29.424Z,3.57
2024-01-19T14:39:58.182Z,3.43
2024-01-19T14:42:26.169Z,3.25
2024-01-19T14:44:55.408Z,3.24
2024-01-19T14:47:23.520Z,3.06
2024-01-19T14:49:52.825Z,2.92
2024-01-19T14:52:24.356Z,2.78
2024-01-19T14:55:08.056Z,2.73
2024-01-19T14:57:36.153Z,2.65
2024-01-19T15:00:09.382Z,2.61
2024-01-19T15:02:37.684Z,2.54
2024-01-19T15:05:08.184Z,2.43
2024-01-19T15:07:46.793Z,2.42
2024-01-19T15:10:19.414Z,2.42
2024-01-19T15:12:48.346Z,2.32
2024-01-19T15:15:18.376Z,2.27
2024-01-19T15:17:48.685Z,2.15
2024-01-19T15:20:29.285Z,2.12
2024-01-19T15:22:58.725Z,2.11
2024-01-19T15:25:26.917Z,2.07
2024-01-19T15:27:59.691Z,1.96
2024-01-19T15:30:33.580Z,1.98
2024-01-19T15:33:06.886Z,1.95
2024-01-19T15:35:34.790Z,1.91
2024-01-19T15:38:04.114Z,1.92
2024-01-19T15:40:33.169Z,1.93
2024-01-19T15:43:02.243Z,1.78
2024-01-19T15:45:35.620Z,1.71
2024-01-19T15:48:03.743Z,1.48
2024-01-19T15:50:33.999Z,1.43
2024-01-19T15:53:02.218Z,1.35
2024-01-19T15:55:30.425Z,1.26
2024-01-19T15:57:58.595Z,1.26
2024-01-19T16:00:28.177Z,1.29
2024-01-19T16:02:59.109Z,1.30
2024-01-19T16:05:27.522Z,1.26
2024-01-19T16:07:56.332Z,1.22
2024-01-19T16:10:24.444Z,1.26
2024-01-19T16:13:01.467Z,1.25
2024-01-19T16:15:32.033Z,1.19
2024-01-19T16:18:07.050Z,1.06
2024-01-19T16:20:35.709Z,1.02
2024-01-19T16:23:04.957Z,0.93
2024-01-19T16:25:32.761Z,0.86
2024-01-19T16:28:02.457Z,0.88
2024-01-19T16:30:30.415Z,0.87
2024-01-19T16:33:00.628Z,0.89
2024-01-19T16:35:34.686Z,0.81
2024-01-19T16:38:03.546Z,0.83
2024-01-19T16:40:32.885Z,0.82
2024-01-19T16:43:01.112Z,0.78
2024-01-19T16:45:29.716Z,0.77
2024-01-19T16:47:59.319Z,0.70
2024-01-19T16:50:29.239Z,0.68
2024-01-19T16:52:59.198Z,0.67
2024-01-19T16:55:28.898Z,0.63
2024-01-19T16:57:56.840Z,0.60
2024-01-19T17:00:24.833Z,0.60
2024-01-19T17:02:53.306Z,0.61
2024-01-19T17:08:09.212Z,0.58
2024-01-19T17:10:37.550Z,0.47
2024-01-19T17:13:06.710Z,0.52
2024-01-19T17:15:34.972Z,0.49
2024-01-19T17:18:03.706Z,0.50
2024-01-19T17:20:31.410Z,0.40
2024-01-19T17:22:58.114Z,0.37
2024-01-19T17:25:29.477Z,0.40
2024-01-19T17:27:58.279Z,0.37
2024-01-19T17:30:27.781Z,0.37
2024-01-19T17:32:57.560Z,0.32
2024-01-19T17:35:26.619Z,0.32
2024-01-19T17:37:56.379Z,0.35
2024-01-19T17:40:24.593Z,0.35
2024-01-19T17:42:54.816Z,0.40
2024-01-19T17:45:23.285Z,0.35
2024-01-19T17:47:53.522Z,0.38
2024-01-19T17:50:22.377Z,0.38
2024-01-19T17:52:50.419Z,0.40
2024-01-19T17:55:18.696Z,0.35
2024-01-19T17:57:49.477Z,0.33
2024-01-19T18:00:21.087Z,0.40
2024-01-19T18:02:49.971Z,0.35
2024-01-19T18:05:17.988Z,0.26
2024-01-19T18:07:46.689Z,0.20
2024-01-19T18:10:17.503Z,0.20
2024-01-19T18:12:45.993Z,0.21
2024-01-19T18:15:17.237Z,0.19
2024-01-19T18:17:50.284Z,0.21
2024-01-19T18:20:18.209Z,0.18
2024-01-19T18:22:46.364Z,0.25
2024-01-19T18:25:14.821Z,0.27
2024-01-19T18:27:42.429Z,0.30
2024-01-19T18:30:11.709Z,0.20
2024-01-19T18:32:41.808Z,0.16
2024-01-19T18:35:13.536Z,0.22
2024-01-19T18:37:44.497Z,0.16
2024-01-19T18:40:13.843Z,0.13
2024-01-19T18:42:41.407Z,0.14
2024-01-19T18:45:10.296Z,0.14
2024-01-19T18:47:40.645Z,0.12
2024-01-19T18:50:12.538Z,0.12
2024-01-19T18:52:42.006Z,0.16
2024-01-19T18:55:13.592Z,0.14
2024-01-19T18:57:42.031Z,0.08
2024-01-19T19:00:11.345Z,0.10
2024-01-19T19:02:39.668Z,0.09
2024-01-19T19:05:08.428Z,0.11
2024-01-19T19:07:36.114Z,0.10
2024-01-19T19:10:05.359Z,0.10
2024-01-19T19:12:32.972Z,0.11
2024-01-19T19:15:02.013Z,0.05
2024-01-19T19:17:29.676Z,0.05
2024-01-19T19:19:57.561Z,0.06
2024-01-19T19:22:25.081Z,0.00
2024-01-19T19:24:55.465Z,-0.03
2024-01-19T19:27:24.402Z,-0.07
2024-01-19T19:29:51.899Z,-0.09
2024-01-19T19:32:19.492Z,-0.15
2024-01-19T19:34:48.621Z,-0.16
2024-01-19T19:37:16.230Z,-0.17
2024-01-19T19:39:49.740Z,-0.19
2024-01-19T19:42:18.248Z,-0.29
2024-01-19T19:44:48.277Z,-0.22
2024-01-19T19:47:16.048Z,-0.24
2024-01-19T19:49:43.828Z,-0.20
2024-01-19T19:52:11.482Z,-0.16
2024-01-19T19:54:39.241Z,-0.24
2024-01-19T19:57:07.265Z,-0.25
2024-01-19T19:59:37.594Z,-0.27
2024-01-19T20:02:07.006Z,-0.26
2024-01-19T20:04:34.535Z,-0.29
2024-01-19T20:07:02.031Z,-0.31
2024-01-19T20:09:29.713Z,-0.40
2024-01-19T20:11:57.470Z,-0.45
2024-01-19T20:14:25.044Z,-0.42
2024-01-19T20:16:52.571Z,-0.45
2024-01-19T20:19:21.584Z,-0.50
2024-01-19T20:21:49.431Z,-0.49
2024-01-19T20:24:16.941Z,-0.66
2024-01-19T20:26:44.446Z,-0.70
2024-01-19T20:29:12.111Z,-0.58
2024-01-19T20:31:39.752Z,-0.59
2024-01-19T20:34:07.542Z,-0.55
2024-01-19T20:36:36.901Z,-0.60
2024-01-19T20:39:04.755Z,-0.62
2024-01-19T20:41:36.641Z,-0.74
2024-01-19T20:44:04.402Z,-0.78
2024-01-19T20:46:32.076Z,-0.80
2024-01-19T20:48:59.775Z,-0.72
2024-01-19T20:51:30.567Z,-0.83
2024-01-19T20:53:59.656Z,-0.84
2024-01-19T20:56:27.174Z,-0.97
2024-01-19T20:58:54.701Z,-1.06
2024-01-19T21:01:22.383Z,-1.03
2024-01-19T21:03:52.283Z,-1.04
2024-01-19T21:06:20.314Z,-1.17
2024-01-19T21:08:48.036Z,-1.24
2024-01-19T21:11:17.369Z,-1.24
2024-01-19T21:13:45.805Z,-1.24
2024-01-19T21:16:13.390Z,-1.27
2024-01-19T21:18:41.266Z,-1.23
2024-01-19T21:21:09.406Z,-1.20
2024-01-19T21:23:38.085Z,-1.34
2024-01-19T21:26:06.092Z,-1.40
2024-01-19T21:28:35.176Z,-1.41
2024-01-19T21:31:02.732Z,-1.41
2024-01-19T21:33:30.256Z,-1.41
2024-01-19T21:35:57.968Z,-1.43
2024-01-19T21:38:25.664Z,-1.42
2024-01-19T21:40:53.461Z,-1.43
2024-01-19T21:43:21.132Z,-1.34
2024-01-19T21:45:50.652Z,-1.34
2024-01-19T21:48:19.787Z,-1.35
2024-01-19T21:50:49.301Z,-1.34
2024-01-19T21:53:17.291Z,-1.36
2024-01-19T21:55:45.974Z,-1.25
2024-01-19T21:58:14.816Z,-1.36
2024-01-19T22:00:42.607Z,-1.29
2024-01-19T22:03:15.466Z,-1.19
2024-01-19T22:05:43.218Z,-1.23
2024-01-19T22:08:11.250Z,-1.18
2024-01-19T22:10:39.248Z,-1.19
2024-01-19T22:13:06.810Z,-1.16
2024-01-19T22:15:35.759Z,-1.15
2024-01-19T22:18:03.507Z,-1.16
2024-01-19T22:20:32.437Z,-1.11
2024-01-19T22:22:59.944Z,-1.09
2024-01-19T22:25:27.555Z,-1.08
2024-01-19T22:27:55.015Z,-1.07
2024-01-19T22:30:24.421Z,-1.07
2024-01-19T22:32:52.255Z,-1.11
2024-01-19T22:35:20.107Z,-1.05
2024-01-19T22:37:49.212Z,-1.05
2024-01-19T22:40:16.894Z,-1.04
2024-01-19T22:42:44.515Z,-1.05
2024-01-19T22:45:12.104Z,-1.09
2024-01-19T22:47:39.993Z,-1.10
2024-01-19T22:50:08.763Z,-1.07
2024-01-19T22:52:38.461Z,-1.06
2024-01-19T22:55:08.207Z,-1.03
2024-01-19T22:57:35.821Z,-1.05
2024-01-19T23:00:13.897Z,-1.02
2024-01-19T23:02:42.060Z,-1.02
2024-01-19T23:05:11.894Z,-1.10
2024-01-19T23:07:40.250Z,-1.07
2024-01-19T23:10:10.601Z,-1.05
2024-01-19T23:12:38.384Z,-1.07
2024-01-19T23:15:09.029Z,-1.01
2024-01-19T23:17:36.918Z,-0.99
2024-01-19T23:20:05.617Z,-0.98
2024-01-19T23:22:33.317Z,-0.95
2024-01-19T23:25:00.829Z,-0.89
2024-01-19T23:27:29.971Z,-0.87
2024-01-19T23:29:57.703Z,-0.97
2024-01-19T23:32:25.453Z,-0.96
2024-01-19T23:34:53.243Z,-0.98
2024-01-19T23:37:20.851Z,-1.02
2024-01-19T23:39:49.325Z,-0.98
2024-01-19T23:42:16.969Z,-0.95
2024-01-19T23:44:46.017Z,-0.92
2024-01-19T23:47:13.767Z,-0.99
2024-01-19T23:49:41.324Z,-1.00
2024-01-19T23:52:08.909Z,-1.03
2024-01-19T23:54:36.569Z,-1.03
2024-01-19T23:57:04.286Z,-1.01
2024-01-19T23:59:33.148Z,-1.06
